Time;durP1;ratioP1;P1;durP2;ratioP2;P2;SDS_P1;SDS_P2;PMS_P1;PMS_P2;Temp;Humidity;BMP_temperature;BMP_pressure;BME280_temperature;BME280_humidity;BME280_pressure;Samples;Min_cycle;Max_cycle;Signal;HPM_P1;HPM_P2
2022/12/22 03:28:11;;;;;;;;;;;;;;;9.88;44.20;99636.63;4341981;32;34395;-62
2022/12/22 03:30:38;;;;;;;;;;;;;;;9.80;45.04;99631.03;4355687;32;33444;-62
2022/12/22 03:33:05;;;;;;;;;;;;;;;9.89;45.68;99627.66;4352581;32;33619;-63
2022/12/22 03:35:33;;;;;;;;;;;;;;;9.96;45.57;99631.59;4355350;32;32604;-62
2022/12/22 03:38:03;;;;;;;;;;;;;;;10.03;45.72;99616.78;4353933;32;34346;-62
2022/12/22 03:40:30;;;;;;;;;;;;;;;9.96;45.87;99614.69;4358385;32;32761;-62
2022/12/22 03:48:29;;;;;;;;;;;;;;;9.92;46.48;99608.72;4355795;32;35602;-62
2022/12/22 03:50:57;;;;;;;;;;;;;;;10.02;46.16;99603.56;4361097;32;33721;-62
2022/12/22 03:53:24;;;;;;;;;;;;;;;9.98;46.12;99610.06;4359489;32;33809;-62
2022/12/22 03:55:51;;;;;;;;;;;;;;;9.96;46.42;99609.34;4359153;32;33438;-62
2022/12/22 03:58:19;;;;;;;;;;;;;;;9.96;46.21;99617.38;4356439;32;35462;-62
2022/12/22 04:00:46;;;;;;;;;;;;;;;10.10;45.76;99619.84;4358037;32;33447;-63
2022/12/22 04:03:14;;;;;;;;;;;;;;;10.16;45.99;99624.75;4352928;32;34441;-62
2022/12/22 04:05:42;;;;;;;;;;;;;;;10.10;46.12;99621.69;4358378;32;33923;-62
2022/12/22 04:08:09;;;;;;;;;;;;;;;9.76;47.94;99632.22;4356843;32;34157;-62
2022/12/22 04:13:22;;;;;;;;;;;;;;;9.91;47.51;99643.59;4353502;32;35326;-62
2022/12/22 04:15:49;;;;;;;;;;;;;;;9.92;47.58;99643.50;4357658;32;34009;-62
2022/12/22 04:18:17;;;;;;;;;;;;;;;10.11;46.55;99642.97;4355403;32;35165;-63
2022/12/22 04:20:44;;;;;;;;;;;;;;;9.99;47.03;99643.87;4356254;32;33976;-63
2022/12/22 04:23:11;;;;;;;;;;;;;;;10.06;46.51;99641.59;4357013;32;34177;-62
2022/12/22 04:25:38;;;;;;;;;;;;;;;9.74;47.86;99650.16;4354732;32;34216;-62
2022/12/22 04:28:06;;;;;;;;;;;;;;;9.70;48.03;99643.34;4356368;32;33858;-62
2022/12/22 04:30:33;;;;;;;;;;;;;;;10.06;46.55;99642.47;4355240;32;34214;-62
2022/12/22 04:33:00;;;;;;;;;;;;;;;9.91;47.36;99641.75;4348703;32;34843;-62
2022/12/22 04:35:27;;;;;;;;;;;;;;;9.98;47.08;99637.69;4356413;32;33593;-61
2022/12/22 04:37:55;;;;;;;;;;;;;;;9.93;47.46;99630.97;4356613;32;34313;-61
2022/12/22 04:40:22;;;;;;;;;;;;;;;10.02;47.12;99617.78;4357121;32;34582;-62
2022/12/22 04:42:49;;;;;;;;;;;;;;;9.28;49.33;99624.09;4356175;32;34269;-62
2022/12/22 04:45:17;;;;;;;;;;;;;;;9.57;48.89;99614.84;4355729;32;33159;-61
2022/12/22 04:47:44;;;;;;;;;;;;;;;9.48;49.05;99620.84;4359303;32;34564;-61
2022/12/22 04:50:11;;;;;;;;;;;;;;;9.51;49.00;99612.63;4357665;32;33620;-61
2022/12/22 04:52:39;;;;;;;;;;;;;;;9.55;48.52;99611.41;4359107;32;34214;-62
2022/12/22 04:55:06;;;;;;;;;;;;;;;9.83;47.92;99617.44;4357946;32;34612;-62
2022/12/22 04:57:34;;;;;;;;;;;;;;;9.95;47.39;99618.31;4356621;32;34475;-62
2022/12/22 05:00:07;;;;;;;;;;;;;;;9.99;47.34;99618.00;4358378;32;34176;-61
2022/12/22 05:02:34;;;;;;;;;;;;;;;9.94;47.67;99617.47;4358189;32;34084;-61
2022/12/22 05:05:02;;;;;;;;;;;;;;;9.91;47.92;99603.47;4354098;32;33190;-61
2022/12/22 05:07:29;;;;;;;;;;;;;;;9.95;47.30;99610.31;4357126;32;34319;-61
2022/12/22 05:09:57;;;;;;;;;;;;;;;9.79;48.02;99616.81;4356665;32;33342;-62
2022/12/22 05:15:10;;;;;;;;;;;;;;;10.01;47.21;99616.03;4357319;32;35995;-61
2022/12/22 05:17:37;;;;;;;;;;;;;;;9.77;48.21;99612.53;4357306;32;32896;-62
2022/12/22 05:20:05;;;;;;;;;;;;;;;9.43;49.03;99614.97;4357459;32;32460;-62
2022/12/22 05:22:32;;;;;;;;;;;;;;;9.60;49.04;99623.59;4359474;32;34351;-62
2022/12/22 05:25:00;;;;;;;;;;;;;;;9.60;48.61;99615.56;4353305;32;34259;-62
2022/12/22 05:27:27;;;;;;;;;;;;;;;9.61;48.45;99615.47;4356962;32;35170;-62
2022/12/22 05:29:54;;;;;;;;;;;;;;;9.79;47.93;99615.94;4351673;32;33301;-62
2022/12/22 05:32:21;;;;;;;;;;;;;;;8.60;50.83;99619.94;4358392;32;33894;-62
2022/12/22 05:34:49;;;;;;;;;;;;;;;9.30;49.35;99616.81;4356402;32;34072;-62
2022/12/22 05:37:16;;;;;;;;;;;;;;;9.80;47.30;99620.31;4356262;32;34395;-62
2022/12/22 05:39:43;;;;;;;;;;;;;;;9.78;47.72;99625.75;4352529;32;33073;-62
2022/12/22 05:42:10;;;;;;;;;;;;;;;9.86;47.44;99619.87;4356385;32;33870;-62
2022/12/22 05:44:38;;;;;;;;;;;;;;;9.91;47.28;99615.03;4358639;32;34361;-62
2022/12/22 05:47:05;;;;;;;;;;;;;;;9.60;48.82;99610.22;4356247;32;34968;-62
2022/12/22 05:49:32;;;;;;;;;;;;;;;9.72;48.43;99604.84;4353612;32;34370;-62
2022/12/22 05:52:00;;;;;;;;;;;;;;;9.85;47.31;99611.94;4358617;32;33900;-62
2022/12/22 05:54:27;;;;;;;;;;;;;;;9.15;49.50;99615.22;4356421;32;35550;-63
2022/12/22 05:56:54;;;;;;;;;;;;;;;9.32;48.21;99609.56;4359227;32;34039;-62
2022/12/22 05:59:22;;;;;;;;;;;;;;;9.57;47.06;99608.66;4355002;32;33977;-63
2022/12/22 06:01:49;;;;;;;;;;;;;;;9.65;47.09;99608.06;4355733;32;34228;-62
2022/12/22 06:04:17;;;;;;;;;;;;;;;9.56;46.66;99605.09;4353047;32;34948;-62
2022/12/22 06:06:46;;;;;;;;;;;;;;;9.53;46.53;99615.16;4356224;32;34182;-63
2022/12/22 06:09:14;;;;;;;;;;;;;;;9.51;46.86;99615.28;4355265;32;33855;-62
2022/12/22 06:11:41;;;;;;;;;;;;;;;9.68;46.98;99614.06;4355478;32;34305;-63
2022/12/22 06:14:08;;;;;;;;;;;;;;;9.58;46.65;99615.69;4357771;32;32490;-63
2022/12/22 06:16:36;;;;;;;;;;;;;;;9.38;47.59;99611.78;4357869;32;34366;-63
2022/12/22 06:19:03;;;;;;;;;;;;;;;8.85;48.01;99609.28;4357132;32;33485;-63
2022/12/22 06:21:30;;;;;;;;;;;;;;;9.24;47.74;99604.75;4353767;32;33746;-63
2022/12/22 06:23:58;;;;;;;;;;;;;;;9.35;47.57;99604.00;4360331;32;34354;-63
2022/12/22 06:26:25;;;;;;;;;;;;;;;9.13;48.13;99603.84;4356287;32;34499;-62
2022/12/22 06:28:53;;;;;;;;;;;;;;;9.21;48.07;99615.69;4353507;32;33004;-63
2022/12/22 06:31:20;;;;;;;;;;;;;;;9.02;48.28;99613.47;4351235;32;34795;-63
2022/12/22 06:33:47;;;;;;;;;;;;;;;9.14;48.18;99608.19;4355714;32;35151;-63
2022/12/22 06:36:15;;;;;;;;;;;;;;;9.35;47.80;99620.03;4354187;32;34883;-63
2022/12/22 06:38:42;;;;;;;;;;;;;;;9.29;48.63;99618.63;4358495;32;33137;-63
2022/12/22 06:41:09;;;;;;;;;;;;;;;9.33;48.74;99625.47;4353547;32;33930;-63
2022/12/22 06:43:36;;;;;;;;;;;;;;;9.49;48.24;99619.03;4357025;32;33057;-63
2022/12/22 06:46:04;;;;;;;;;;;;;;;9.57;47.57;99630.03;4357228;32;34012;-63
2022/12/22 06:48:31;;;;;;;;;;;;;;;9.18;48.99;99629.25;4355814;32;33301;-63
2022/12/22 06:50:59;;;;;;;;;;;;;;;8.80;50.02;99624.78;4339096;32;32897;-63
2022/12/22 06:53:26;;;;;;;;;;;;;;;9.32;49.11;99629.09;4354105;32;34364;-63
2022/12/22 06:55:53;;;;;;;;;;;;;;;9.42;48.64;99623.97;4356361;32;34128;-63
2022/12/22 06:58:21;;;;;;;;;;;;;;;9.62;47.92;99630.53;4355131;32;33265;-67
2022/12/22 07:00:50;;;;;;;;;;;;;;;9.72;47.52;99628.88;4353106;32;37446;-62
2022/12/22 07:03:17;;;;;;;;;;;;;;;9.76;47.58;99634.87;4357789;32;34340;-62
2022/12/22 07:05:45;;;;;;;;;;;;;;;9.80;47.24;99631.88;4355029;32;34902;-62
2022/12/22 07:08:12;;;;;;;;;;;;;;;9.78;47.18;99639.12;4356004;32;32159;-62
2022/12/22 07:10:58;;;;;;;;;;;;;;;9.72;47.70;99642.25;4356986;32;34025;-62
2022/12/22 07:13:27;;;;;;;;;;;;;;;9.71;48.14;99643.22;4356824;32;34809;-62
2022/12/22 07:15:54;;;;;;;;;;;;;;;9.92;47.13;99638.16;4353099;32;33900;-62
2022/12/22 07:18:30;;;;;;;;;;;;;;;9.87;47.47;99626.91;4358582;32;33206;-62
2022/12/22 07:20:59;;;;;;;;;;;;;;;9.96;47.34;99625.41;4357416;32;35158;-62
2022/12/22 07:23:26;;;;;;;;;;;;;;;9.47;48.42;99637.84;4357072;32;33025;-62
2022/12/22 07:25:53;;;;;;;;;;;;;;;9.80;48.16;99631.88;4354518;32;33743;-64
2022/12/22 07:28:40;;;;;;;;;;;;;;;9.80;48.25;99626.53;4353052;32;33160;-64
2022/12/22 07:31:25;;;;;;;;;;;;;;;10.08;46.72;99637.84;4351038;32;31633;-65
2022/12/22 07:33:53;;;;;;;;;;;;;;;9.75;48.15;99634.00;4350951;32;35569;-65
2022/12/22 07:36:20;;;;;;;;;;;;;;;9.99;47.21;99636.72;4355059;32;33915;-63
2022/12/22 07:39:06;;;;;;;;;;;;;;;10.08;46.75;99640.53;4342670;32;32867;-63
2022/12/22 07:44:39;;;;;;;;;;;;;;;9.99;47.00;99639.38;4356612;32;33968;-62
2022/12/22 07:47:25;;;;;;;;;;;;;;;9.85;48.12;99647.56;4347984;32;32746;-63
2022/12/22 07:50:31;;;;;;;;;;;;;;;9.85;48.36;99655.56;4352353;32;33326;-66
2022/12/22 07:52:59;;;;;;;;;;;;;;;10.15;46.57;99660.50;4359573;32;35007;-63
2022/12/22 07:55:27;;;;;;;;;;;;;;;10.14;46.57;99647.22;4360400;32;34283;-63
2022/12/22 07:57:54;;;;;;;;;;;;;;;10.13;47.06;99653.56;4358472;32;34879;-63
2022/12/22 08:00:22;;;;;;;;;;;;;;;9.98;47.39;99640.38;4357511;32;33718;-63
2022/12/22 08:02:50;;;;;;;;;;;;;;;10.06;46.85;99650.47;4358885;32;35159;-63
2022/12/22 08:05:36;;;;;;;;;;;;;;;10.24;46.41;99649.13;4358165;32;35157;-63
2022/12/22 08:08:22;;;;;;;;;;;;;;;10.06;46.88;99649.63;4356854;32;34115;-63
2022/12/22 08:11:08;;;;;;;;;;;;;;;10.06;46.56;99646.97;4352703;32;33311;-64
2022/12/22 08:13:36;;;;;;;;;;;;;;;10.30;46.12;99650.50;4355276;32;33701;-63
2022/12/22 08:16:22;;;;;;;;;;;;;;;10.41;46.09;99661.25;4361465;32;34160;-63
2022/12/22 08:19:08;;;;;;;;;;;;;;;10.31;46.54;99664.75;4363115;32;34401;-63
2022/12/22 08:21:54;;;;;;;;;;;;;;;10.48;45.70;99659.81;4357967;32;33354;-62
2022/12/22 08:24:40;;;;;;;;;;;;;;;10.26;45.02;99649.87;4359873;32;35339;-64
2022/12/22 08:27:09;;;;;;;;;;;;;;;10.33;44.48;99633.34;4347175;32;32725;-62
2022/12/22 08:29:56;;;;;;;;;;;;;;;10.08;45.37;99632.50;4349795;32;33689;-62
2022/12/22 08:32:42;;;;;;;;;;;;;;;9.40;47.71;99638.38;4343255;32;34194;-62
2022/12/22 08:35:28;;;;;;;;;;;;;;;9.71;47.24;99637.88;4352329;32;35649;-62
2022/12/22 08:38:14;;;;;;;;;;;;;;;10.03;46.90;99645.34;4349817;32;33961;-61
2022/12/22 08:40:42;;;;;;;;;;;;;;;9.56;47.80;99644.31;4356169;32;33705;-62
2022/12/22 08:43:27;;;;;;;;;;;;;;;9.52;47.80;99637.50;4356878;32;33244;-62
2022/12/22 08:46:13;;;;;;;;;;;;;;;9.19;48.62;99644.31;4345874;32;34378;-62
2022/12/22 08:48:41;;;;;;;;;;;;;;;8.91;48.46;99668.53;4366088;32;35504;-62
2022/12/22 08:51:08;;;;;;;;;;;;;;;9.42;47.53;99669.38;4360881;32;35140;-62
2022/12/22 08:53:36;;;;;;;;;;;;;;;9.13;48.28;99655.41;4361136;32;31646;-62
2022/12/22 08:56:23;;;;;;;;;;;;;;;9.36;47.52;99659.13;4361576;32;34037;-63
2022/12/22 08:58:51;;;;;;;;;;;;;;;9.70;47.77;99649.53;4361712;32;34084;-62
2022/12/22 09:01:19;;;;;;;;;;;;;;;9.89;47.27;99659.75;4359741;32;35659;-63
2022/12/22 09:03:50;;;;;;;;;;;;;;;9.93;47.10;99647.00;4360755;32;33424;-62
2022/12/22 09:06:21;;;;;;;;;;;;;;;8.99;47.70;99636.81;4360025;32;34372;-62
2022/12/22 09:08:55;;;;;;;;;;;;;;;9.62;46.80;99632.34;4360469;32;34539;-61
2022/12/22 09:11:22;;;;;;;;;;;;;;;9.40;46.55;99622.34;4357890;32;34996;-62
2022/12/22 09:13:53;;;;;;;;;;;;;;;9.39;46.91;99631.34;4360715;32;34368;-62
2022/12/22 09:16:21;;;;;;;;;;;;;;;9.24;47.12;99630.59;4360712;32;34104;-62
2022/12/22 09:18:48;;;;;;;;;;;;;;;9.60;46.76;99619.13;4358851;32;34191;-62
2022/12/22 09:21:16;;;;;;;;;;;;;;;9.24;47.68;99614.59;4358805;32;33353;-62
2022/12/22 09:23:44;;;;;;;;;;;;;;;9.00;47.53;99615.38;4361116;32;33333;-62
2022/12/22 09:26:13;;;;;;;;;;;;;;;8.75;48.18;99631.38;4361249;32;35274;-62
2022/12/22 09:28:40;;;;;;;;;;;;;;;9.14;47.54;99610.88;4357502;32;35736;-62
2022/12/22 09:31:16;;;;;;;;;;;;;;;8.22;49.27;99606.50;4359274;32;35199;-62
2022/12/22 09:33:44;;;;;;;;;;;;;;;7.87;49.70;99607.06;4360836;32;33110;-62
2022/12/22 09:36:12;;;;;;;;;;;;;;;7.12;51.64;99614.53;4358652;32;35251;-62
2022/12/22 09:38:41;;;;;;;;;;;;;;;7.21;52.53;99613.94;4357704;32;34529;-62
2022/12/22 09:41:15;;;;;;;;;;;;;;;7.69;51.15;99607.28;4358070;32;34442;-62
2022/12/22 09:43:42;;;;;;;;;;;;;;;8.22;50.52;99609.16;4357470;32;33688;-62
2022/12/22 09:46:17;;;;;;;;;;;;;;;8.38;50.35;99605.41;4359321;32;34786;-62
2022/12/22 09:48:45;;;;;;;;;;;;;;;6.43;54.72;99605.47;4356636;32;35577;-62
2022/12/22 09:51:12;;;;;;;;;;;;;;;7.03;52.96;99604.44;4357659;32;34134;-62
2022/12/22 09:53:40;;;;;;;;;;;;;;;7.61;51.60;99598.97;4346186;32;31719;-62
2022/12/22 09:56:10;;;;;;;;;;;;;;;8.35;49.65;99594.94;4357619;32;34679;-62
2022/12/22 09:58:37;;;;;;;;;;;;;;;8.14;49.92;99581.22;4358134;32;33750;-62
2022/12/22 10:01:04;;;;;;;;;;;;;;;8.49;49.90;99572.66;4362419;32;34145;-62
2022/12/22 10:03:46;;;;;;;;;;;;;;;8.43;49.97;99581.09;4356335;32;35073;-62
2022/12/22 10:06:15;;;;;;;;;;;;;;;9.04;48.40;99563.47;4345467;32;34063;-63
2022/12/22 10:08:42;;;;;;;;;;;;;;;9.02;48.49;99560.06;4348035;32;32869;-63
2022/12/22 10:11:14;;;;;;;;;;;;;;;9.66;47.53;99565.22;4361326;32;33941;-62
2022/12/22 10:13:41;;;;;;;;;;;;;;;10.85;45.21;99565.09;4348789;32;34428;-62
2022/12/22 10:16:16;;;;;;;;;;;;;;;11.63;42.02;99558.84;4361660;32;34072;-62
2022/12/22 10:18:53;;;;;;;;;;;;;;;11.65;41.46;99556.84;4361036;32;35538;-62
2022/12/22 10:21:22;;;;;;;;;;;;;;;11.50;41.68;99558.13;4357034;32;33080;-62
2022/12/22 10:23:49;;;;;;;;;;;;;;;10.92;42.71;99548.44;4358707;32;33656;-62
2022/12/22 10:26:20;;;;;;;;;;;;;;;9.83;45.06;99549.75;4358535;32;34362;-62
2022/12/22 10:28:57;;;;;;;;;;;;;;;10.58;44.17;99544.88;4348832;32;35407;-62
2022/12/22 10:31:26;;;;;;;;;;;;;;;9.43;46.56;99542.00;4361170;32;34176;-62
2022/12/22 10:33:54;;;;;;;;;;;;;;;8.17;49.96;99546.34;4357221;32;33406;-62
2022/12/22 10:36:22;;;;;;;;;;;;;;;8.94;48.42;99540.22;4357533;32;34439;-62
2022/12/22 10:38:53;;;;;;;;;;;;;;;8.49;49.16;99550.47;4356687;32;32840;-62
2022/12/22 10:41:21;;;;;;;;;;;;;;;9.30;47.41;99547.38;4359002;32;34479;-62
2022/12/22 10:43:55;;;;;;;;;;;;;;;8.34;50.26;99544.34;4355427;32;33268;-62
2022/12/22 10:46:49;;;;;;;;;;;;;;;8.58;49.93;99536.50;4346217;32;34653;-63
2022/12/22 10:49:37;;;;;;;;;;;;;;;7.99;51.24;99534.25;4357213;32;34248;-62
2022/12/22 10:52:14;;;;;;;;;;;;;;;9.67;47.45;99518.81;4347324;32;33839;-63
2022/12/22 10:54:43;;;;;;;;;;;;;;;9.43;47.46;99515.28;4346966;32;32855;-63
2022/12/22 10:57:13;;;;;;;;;;;;;;;8.91;48.69;99527.94;4343879;32;33717;-63
2022/12/22 10:59:51;;;;;;;;;;;;;;;10.25;45.72;99537.63;4358647;32;34151;-63
2022/12/22 11:02:36;;;;;;;;;;;;;;;11.54;43.02;99539.00;4355652;32;35085;-63
2022/12/22 11:05:05;;;;;;;;;;;;;;;11.26;42.71;99535.00;4357946;32;33684;-62
2022/12/22 11:07:40;;;;;;;;;;;;;;;11.27;43.30;99527.81;4358818;32;34969;-63
2022/12/22 11:10:11;;;;;;;;;;;;;;;11.39;43.10;99529.50;4342791;32;35458;-63
2022/12/22 11:12:54;;;;;;;;;;;;;;;11.41;43.33;99527.56;4359572;32;34134;-63
2022/12/22 11:15:27;;;;;;;;;;;;;;;10.79;44.53;99517.41;4358045;32;33372;-63
2022/12/22 11:18:09;;;;;;;;;;;;;;;10.87;44.75;99525.69;4357813;32;35378;-63
2022/12/22 11:20:45;;;;;;;;;;;;;;;10.33;45.48;99524.53;4345387;32;34275;-63
2022/12/22 11:23:13;;;;;;;;;;;;;;;11.17;43.50;99519.69;4345289;32;33205;-63
2022/12/22 11:25:43;;;;;;;;;;;;;;;10.30;45.26;99516.72;4360109;32;34626;-63
2022/12/22 11:28:16;;;;;;;;;;;;;;;9.80;45.99;99518.75;4343772;32;33088;-63
2022/12/22 11:31:02;;;;;;;;;;;;;;;8.51;49.41;99512.06;4361436;32;34447;-63
2022/12/22 11:33:39;;;;;;;;;;;;;;;9.76;46.99;99507.44;4357364;32;34189;-64
2022/12/22 11:36:10;;;;;;;;;;;;;;;10.04;46.46;99495.47;4359714;32;33322;-63
2022/12/22 11:38:56;;;;;;;;;;;;;;;10.35;45.91;99495.84;4349584;32;34795;-62
2022/12/22 11:41:30;;;;;;;;;;;;;;;9.80;46.31;99502.72;4357642;32;34055;-62
2022/12/22 11:43:57;;;;;;;;;;;;;;;7.91;51.51;99510.81;4350200;32;34515;-63
2022/12/22 11:46:25;;;;;;;;;;;;;;;8.89;49.51;99518.31;4353963;32;33071;-62
2022/12/22 11:48:55;;;;;;;;;;;;;;;9.13;48.86;99516.56;4358405;32;33938;-63
2022/12/22 11:51:30;;;;;;;;;;;;;;;9.82;47.57;99518.63;4359260;32;35029;-63
2022/12/22 11:53:57;;;;;;;;;;;;;;;9.84;47.26;99514.88;4359536;32;34240;-63
2022/12/22 11:56:39;;;;;;;;;;;;;;;9.30;48.31;99507.31;4359888;32;32868;-63
2022/12/22 11:59:07;;;;;;;;;;;;;;;10.33;45.94;99519.16;4358147;32;33535;-63
2022/12/22 12:01:53;;;;;;;;;;;;;;;10.48;46.66;99511.78;4357760;32;34209;-62
2022/12/22 12:04:23;;;;;;;;;;;;;;;10.36;46.50;99510.91;4355433;32;33874;-63
2022/12/22 12:06:58;;;;;;;;;;;;;;;10.47;45.98;99512.78;4356396;32;33425;-63
2022/12/22 12:09:58;;;;;;;;;;;;;;;10.70;45.32;99506.47;4355429;32;33482;-63
2022/12/22 12:12:27;;;;;;;;;;;;;;;10.58;46.20;99501.22;4325069;32;35468;-63
2022/12/22 12:15:13;;;;;;;;;;;;;;;10.93;45.80;99504.63;4342190;32;35433;-63
2022/12/22 12:17:51;;;;;;;;;;;;;;;10.92;45.41;99499.41;4350754;32;31920;-63
2022/12/22 12:20:19;;;;;;;;;;;;;;;10.93;45.01;99496.59;4344227;32;34301;-62
2022/12/22 12:23:06;;;;;;;;;;;;;;;11.11;44.44;99502.31;4360809;32;34561;-63
2022/12/22 12:25:38;;;;;;;;;;;;;;;11.11;44.44;99494.28;4360336;32;34450;-62
2022/12/22 12:28:12;;;;;;;;;;;;;;;11.24;44.22;99487.91;4343396;32;33338;-62
2022/12/22 12:30:56;;;;;;;;;;;;;;;10.64;45.29;99484.69;4345505;32;32589;-63
2022/12/22 12:33:26;;;;;;;;;;;;;;;10.71;45.04;99492.09;4359989;32;33886;-62
2022/12/22 12:35:59;;;;;;;;;;;;;;;10.24;46.33;99504.69;4357028;32;35191;-63
2022/12/22 12:38:45;;;;;;;;;;;;;;;10.72;45.48;99507.19;4346273;32;33267;-63
2022/12/22 12:41:36;;;;;;;;;;;;;;;10.78;45.31;99511.19;4355501;32;34274;-63
2022/12/22 12:44:04;;;;;;;;;;;;;;;11.06;44.77;99523.22;4335520;32;32863;-63
2022/12/22 12:46:51;;;;;;;;;;;;;;;10.58;45.86;99517.28;4344945;32;34398;-63
2022/12/22 12:49:33;;;;;;;;;;;;;;;10.57;45.48;99518.25;4355281;32;34192;-64
2022/12/22 12:52:04;;;;;;;;;;;;;;;10.78;45.80;99519.22;4351267;32;32747;-64
2022/12/22 12:54:32;;;;;;;;;;;;;;;10.95;45.61;99526.78;4358817;32;34418;-63
2022/12/22 12:57:00;;;;;;;;;;;;;;;10.85;45.63;99517.78;4357725;32;34227;-63
2022/12/22 12:59:40;;;;;;;;;;;;;;;11.13;45.05;99507.53;4351717;32;34358;-63
2022/12/22 13:02:25;;;;;;;;;;;;;;;11.05;45.54;99510.81;4361308;32;35281;-63
2022/12/22 13:05:12;;;;;;;;;;;;;;;10.98;45.05;99514.09;4359416;32;33877;-63
2022/12/22 13:07:58;;;;;;;;;;;;;;;10.96;44.96;99504.38;4346828;32;32816;-63
2022/12/22 13:10:26;;;;;;;;;;;;;;;10.98;45.35;99501.59;4353025;32;33453;-63
2022/12/22 13:12:53;;;;;;;;;;;;;;;11.12;45.18;99500.47;4361535;32;32422;-64
2022/12/22 13:15:28;;;;;;;;;;;;;;;10.87;45.77;99499.75;4360135;32;35394;-63
2022/12/22 13:17:56;;;;;;;;;;;;;;;10.92;45.52;99496.72;4345656;32;32653;-63
2022/12/22 13:20:24;;;;;;;;;;;;;;;10.92;45.27;99492.22;4356354;32;33649;-63
2022/12/22 13:22:52;;;;;;;;;;;;;;;10.09;46.69;99494.31;4345728;32;34050;-63
2022/12/22 13:25:20;;;;;;;;;;;;;;;10.93;45.23;99507.28;4343422;32;34522;-63
2022/12/22 13:27:47;;;;;;;;;;;;;;;11.02;45.24;99507.56;4360980;32;34431;-63
2022/12/22 13:30:15;;;;;;;;;;;;;;;10.55;46.16;99509.47;4357285;32;33130;-63
2022/12/22 13:32:44;;;;;;;;;;;;;;;10.90;45.40;99493.31;4358004;32;33714;-63
2022/12/22 13:35:13;;;;;;;;;;;;;;;11.11;45.18;99488.06;4345185;32;34319;-63
2022/12/22 13:37:59;;;;;;;;;;;;;;;11.09;45.06;99487.31;4359691;32;34276;-63
2022/12/22 13:40:27;;;;;;;;;;;;;;;11.16;44.80;99478.66;4359870;32;33598;-63
2022/12/22 13:42:55;;;;;;;;;;;;;;;11.06;45.42;99471.50;4358588;32;33963;-63
2022/12/22 13:45:30;;;;;;;;;;;;;;;10.55;46.20;99456.81;4354200;32;34919;-63
2022/12/22 13:47:59;;;;;;;;;;;;;;;9.88;47.90;99457.53;4357477;32;33895;-63
2022/12/22 13:50:29;;;;;;;;;;;;;;;9.90;47.79;99463.62;4348685;32;31776;-63
2022/12/22 13:52:56;;;;;;;;;;;;;;;9.45;48.58;99468.78;4359274;32;34470;-63
2022/12/22 13:55:27;;;;;;;;;;;;;;;9.08;49.69;99459.97;4354695;32;34585;-63
2022/12/22 13:57:55;;;;;;;;;;;;;;;9.37;49.92;99456.97;4361342;32;35808;-63
2022/12/22 14:00:26;;;;;;;;;;;;;;;9.99;48.67;99462.91;4348843;32;34440;-64
2022/12/22 14:02:53;;;;;;;;;;;;;;;9.35;50.60;99448.22;4353627;32;33767;-63
2022/12/22 14:05:21;;;;;;;;;;;;;;;8.54;53.02;99449.63;4357167;32;35430;-63
2022/12/22 14:07:59;;;;;;;;;;;;;;;9.13;52.21;99444.47;4353050;32;32547;-63
2022/12/22 14:10:27;;;;;;;;;;;;;;;8.96;52.06;99445.72;4359845;32;33308;-63
2022/12/22 14:12:54;;;;;;;;;;;;;;;7.85;55.03;99441.94;4362036;32;32383;-63
2022/12/22 14:15:21;;;;;;;;;;;;;;;7.85;55.38;99435.75;4360228;32;33060;-63
2022/12/22 14:17:49;;;;;;;;;;;;;;;7.86;55.26;99440.97;4358903;32;37333;-63
2022/12/22 14:20:27;;;;;;;;;;;;;;;8.13;55.15;99440.91;4351680;32;33034;-63
2022/12/22 14:22:56;;;;;;;;;;;;;;;9.08;51.82;99458.16;4356263;32;33842;-62
2022/12/22 14:25:26;;;;;;;;;;;;;;;8.39;52.91;99447.09;4354091;32;34301;-62
2022/12/22 14:27:54;;;;;;;;;;;;;;;7.99;54.97;99451.66;4342759;32;32315;-62
2022/12/22 14:30:22;;;;;;;;;;;;;;;9.32;51.54;99455.50;4356240;32;33173;-63
2022/12/22 14:32:50;;;;;;;;;;;;;;;9.51;51.09;99463.00;4341974;32;33639;-62
2022/12/22 14:35:21;;;;;;;;;;;;;;;9.45;50.51;99466.13;4353919;32;34321;-63
2022/12/22 14:38:01;;;;;;;;;;;;;;;9.61;50.97;99478.34;4354319;32;32727;-62
2022/12/22 14:40:32;;;;;;;;;;;;;;;9.61;51.78;99492.56;4357656;32;34761;-63
2022/12/22 14:43:01;;;;;;;;;;;;;;;9.88;51.25;99500.31;4360382;32;34151;-63
2022/12/22 14:45:28;;;;;;;;;;;;;;;10.07;50.76;99485.53;4360236;32;33747;-63
2022/12/22 14:47:56;;;;;;;;;;;;;;;10.00;51.27;99506.53;4352687;32;33093;-63
2022/12/22 14:50:24;;;;;;;;;;;;;;;10.27;50.06;99490.22;4342664;32;33169;-63
2022/12/22 14:52:56;;;;;;;;;;;;;;;10.41;49.22;99498.03;4345462;32;32463;-63
2022/12/22 14:55:23;;;;;;;;;;;;;;;10.48;49.19;99490.37;4357829;32;34150;-63
2022/12/22 14:57:51;;;;;;;;;;;;;;;10.44;49.75;99503.16;4356903;32;34945;-63
2022/12/22 15:00:22;;;;;;;;;;;;;;;10.40;49.95;99504.38;4350599;32;33018;-64
2022/12/22 15:02:53;;;;;;;;;;;;;;;10.48;49.22;99512.63;4357572;32;33785;-63
2022/12/22 15:05:36;;;;;;;;;;;;;;;10.43;49.35;99514.84;4357103;32;33454;-62
2022/12/22 15:08:04;;;;;;;;;;;;;;;9.88;50.88;99500.31;4350682;32;33919;-63
2022/12/22 15:10:39;;;;;;;;;;;;;;;9.91;50.61;99494.72;4345249;32;31516;-63
2022/12/22 15:13:10;;;;;;;;;;;;;;;10.17;50.00;99497.22;4347435;32;34341;-64
2022/12/22 15:15:38;;;;;;;;;;;;;;;10.31;50.10;99496.22;4341929;32;34540;-64
2022/12/22 15:18:05;;;;;;;;;;;;;;;10.37;49.62;99483.22;4356804;32;35273;-64
2022/12/22 15:20:32;;;;;;;;;;;;;;;10.36;49.48;99486.84;4340395;32;33372;-63
2022/12/22 15:23:13;;;;;;;;;;;;;;;10.41;49.35;99476.63;4356153;32;32887;-63
2022/12/22 15:25:40;;;;;;;;;;;;;;;10.32;49.74;99473.84;4354696;32;35408;-63
2022/12/22 15:28:08;;;;;;;;;;;;;;;10.13;50.34;99477.03;4357446;32;33876;-63
2022/12/22 15:30:35;;;;;;;;;;;;;;;10.07;50.70;99478.34;4355291;32;31870;-64
2022/12/22 15:33:02;;;;;;;;;;;;;;;10.20;50.93;99478.25;4348605;32;34267;-65
2022/12/22 15:35:31;;;;;;;;;;;;;;;10.47;50.10;99468.13;4356863;32;35173;-63
2022/12/22 15:37:58;;;;;;;;;;;;;;;10.57;49.42;99462.06;4357285;32;34081;-63
2022/12/22 15:40:26;;;;;;;;;;;;;;;10.19;50.41;99463.19;4345071;32;33335;-64
2022/12/22 15:42:54;;;;;;;;;;;;;;;8.70;53.90;99452.06;4358340;32;34569;-64
2022/12/22 15:45:21;;;;;;;;;;;;;;;8.63;53.70;99449.84;4357050;32;34099;-64
2022/12/22 15:47:49;;;;;;;;;;;;;;;8.75;53.96;99442.78;4359627;32;35150;-62
2022/12/22 15:50:18;;;;;;;;;;;;;;;7.69;57.46;99439.47;4342763;32;33422;-63
2022/12/22 15:52:50;;;;;;;;;;;;;;;9.01;53.48;99440.88;4346906;32;34294;-63
2022/12/22 15:55:18;;;;;;;;;;;;;;;8.55;54.28;99441.53;4359728;32;34164;-62
2022/12/22 15:57:46;;;;;;;;;;;;;;;8.47;54.53;99441.22;4355736;32;34230;-63
2022/12/22 16:00:14;;;;;;;;;;;;;;;9.55;51.41;99435.06;4340032;32;33203;-62
2022/12/22 16:02:41;;;;;;;;;;;;;;;8.16;55.20;99434.50;4354549;32;35242;-63
2022/12/22 16:05:09;;;;;;;;;;;;;;;7.68;57.18;99434.25;4357379;32;34108;-61
2022/12/22 16:07:37;;;;;;;;;;;;;;;8.21;55.92;99439.50;4357387;32;34044;-62
2022/12/22 16:10:06;;;;;;;;;;;;;;;8.82;53.91;99438.69;4356670;32;33560;-63
2022/12/22 16:12:36;;;;;;;;;;;;;;;8.17;55.53;99434.38;4346430;32;34345;-62
2022/12/22 16:15:04;;;;;;;;;;;;;;;8.45;55.07;99428.97;4354814;32;35498;-62
2022/12/22 16:17:31;;;;;;;;;;;;;;;8.42;55.42;99435.38;4355972;32;32695;-62
2022/12/22 16:19:59;;;;;;;;;;;;;;;8.96;53.97;99443.03;4353336;32;33512;-64
2022/12/22 16:22:33;;;;;;;;;;;;;;;9.15;54.01;99439.88;4355664;32;35294;-63
2022/12/22 16:25:01;;;;;;;;;;;;;;;9.15;53.43;99447.91;4357290;32;33865;-64
2022/12/22 16:27:29;;;;;;;;;;;;;;;9.15;54.19;99471.03;4339442;32;34768;-62
2022/12/22 16:29:56;;;;;;;;;;;;;;;9.45;53.89;99473.28;4344625;32;34547;-62
2022/12/22 16:32:28;;;;;;;;;;;;;;;9.71;53.15;99468.66;4355754;32;33669;-64
2022/12/22 16:35:08;;;;;;;;;;;;;;;9.63;53.08;99489.75;4346011;32;34043;-62
2022/12/22 16:37:35;;;;;;;;;;;;;;;9.75;52.59;99486.16;4355645;32;32968;-63
2022/12/22 16:40:04;;;;;;;;;;;;;;;9.79;52.38;99487.62;4359219;32;32966;-64
2022/12/22 16:42:31;;;;;;;;;;;;;;;9.96;51.70;99484.53;4353362;32;34277;-63
2022/12/22 16:45:20;;;;;;;;;;;;;;;10.10;51.56;99472.78;4348255;32;34148;-62
2022/12/22 16:47:48;;;;;;;;;;;;;;;9.92;52.00;99491.09;4358594;32;33057;-64
2022/12/22 16:50:16;;;;;;;;;;;;;;;10.03;51.54;99469.72;4359047;32;32389;-66
2022/12/22 16:52:44;;;;;;;;;;;;;;;10.10;51.11;99464.75;4345566;32;34062;-63
2022/12/22 16:55:15;;;;;;;;;;;;;;;9.80;52.30;99476.84;4360129;32;34409;-63